createdAt,value
2022-11-24T00:04:04.474Z,99447.69
2022-11-24T00:09:06.780Z,99451.44
2022-11-24T00:14:08.856Z,99452.59
2022-11-24T00:19:12.009Z,99454.69
2022-11-24T00:24:16.411Z,99460.22
2022-11-24T00:29:18.181Z,99463.22
2022-11-24T00:34:19.827Z,99465.31
2022-11-24T00:39:21.501Z,99462.03
2022-11-24T00:44:23.274Z,99474.25
2022-11-24T00:49:24.949Z,99476.47
2022-11-24T00:54:26.558Z,99479.44
2022-11-24T00:59:28.259Z,99482.09
2022-11-24T01:04:29.913Z,99485.81
2022-11-24T01:09:31.528Z,99491.44
2022-11-24T01:14:33.848Z,99497.63
2022-11-24T01:19:35.688Z,99501.88
2022-11-24T01:24:37.383Z,99517.34
2022-11-24T01:29:39.143Z,99523.56
2022-11-24T01:34:40.832Z,99521.88
2022-11-24T01:39:42.527Z,99526.88
2022-11-24T01:44:44.350Z,99524.31
2022-11-24T01:49:52.034Z,99533.13
2022-11-24T01:54:55.754Z,99532.16
2022-11-24T02:00:04.147Z,99530.56
2022-11-24T02:05:20.503Z,99533.94
2022-11-24T02:10:22.491Z,99541.03
2022-11-24T02:15:24.364Z,99544.41
2022-11-24T02:20:26.545Z,99537.19
2022-11-24T02:25:56.515Z,99543.69
2022-11-24T02:30:59.354Z,99552.13
2022-11-24T02:36:01.091Z,99547.38
2022-11-24T02:41:11.509Z,99546.94
2022-11-24T02:46:13.246Z,99550.63
2022-11-24T02:51:15.064Z,99552.22
2022-11-24T02:56:16.736Z,99552.03
2022-11-24T03:01:18.415Z,99557.63
2022-11-24T03:06:20.129Z,99565.09
2022-11-24T03:11:21.797Z,99557.81
2022-11-24T03:16:23.815Z,99560.75
2022-11-24T03:21:25.466Z,99558.75
2022-11-24T03:26:28.016Z,99565.94
2022-11-24T03:31:29.729Z,99568.44
2022-11-24T03:36:31.515Z,99575.53
2022-11-24T03:41:33.355Z,99578.16
2022-11-24T03:46:35.244Z,99567.19
2022-11-24T03:51:37.002Z,99582.50
2022-11-24T03:56:38.597Z,99591.00
2022-11-24T04:01:40.307Z,99591.97
2022-11-24T04:06:42.032Z,99595.56
2022-11-24T04:12:02.285Z,99601.59
2022-11-24T04:17:04.333Z,99601.31
2022-11-24T04:22:06.102Z,99605.31
2022-11-24T04:27:07.791Z,99602.16
2022-11-24T04:32:12.351Z,99601.97
2022-11-24T04:37:14.079Z,99611.25
2022-11-24T04:42:16.013Z,99626.84
2022-11-24T04:47:22.801Z,99631.84
2022-11-24T04:52:25.595Z,99634.28
2022-11-24T04:57:27.682Z,99641.00
2022-11-24T05:02:29.363Z,99643.16
2022-11-24T05:07:31.240Z,99660.59
2022-11-24T05:12:33.688Z,99659.97
2022-11-24T05:17:37.522Z,99665.72
2022-11-24T05:22:39.212Z,99672.41
2022-11-24T05:27:41.125Z,99674.69
2022-11-24T05:32:42.823Z,99679.41
2022-11-24T05:37:44.685Z,99685.56
2022-11-24T05:42:48.215Z,99683.34
2022-11-24T05:47:51.463Z,99689.41
2022-11-24T05:52:53.127Z,99696.00
2022-11-24T05:57:59.311Z,99699.28
2022-11-24T06:03:01.399Z,99713.31
2022-11-24T06:08:03.243Z,99713.94
2022-11-24T06:13:06.612Z,99725.09
2022-11-24T06:18:08.282Z,99732.22
2022-11-24T06:23:10.245Z,99739.75
2022-11-24T06:28:12.399Z,99735.19
2022-11-24T06:33:14.402Z,99743.69
2022-11-24T06:38:20.133Z,99751.38
2022-11-24T06:43:27.500Z,99753.19
2022-11-24T06:48:29.901Z,99755.63
2022-11-24T06:53:38.551Z,99764.47
2022-11-24T06:58:42.062Z,99768.09
2022-11-24T07:03:43.754Z,99764.16
2022-11-24T07:08:46.044Z,99777.00
2022-11-24T07:13:48.079Z,99782.22
2022-11-24T07:18:51.360Z,99775.63
2022-11-24T07:23:55.035Z,99783.59
2022-11-24T07:28:56.708Z,99785.94
2022-11-24T07:33:58.458Z,99791.13
2022-11-24T07:39:00.268Z,99804.97
2022-11-24T07:44:02.383Z,99810.06
2022-11-24T07:49:04.158Z,99813.25
2022-11-24T07:54:05.931Z,99813.03
2022-11-24T07:59:07.859Z,99816.00
2022-11-24T08:04:09.624Z,99816.44
2022-11-24T08:09:11.604Z,99820.00
2022-11-24T08:14:13.271Z,99814.31
2022-11-24T08:19:15.025Z,99812.38
2022-11-24T08:24:17.151Z,99817.38
2022-11-24T08:29:18.820Z,99820.31
2022-11-24T08:34:20.509Z,99825.06
2022-11-24T08:39:22.225Z,99826.31
2022-11-24T08:44:24.245Z,99827.31
2022-11-24T08:49:26.089Z,99830.72
2022-11-24T08:54:28.072Z,99828.56
2022-11-24T08:59:29.715Z,99824.19
2022-11-24T09:04:31.575Z,99835.47
2022-11-24T09:09:33.432Z,99832.91
2022-11-24T09:14:35.228Z,99838.75
2022-11-24T09:19:37.271Z,99850.19
2022-11-24T09:24:38.904Z,99844.28
2022-11-24T09:29:40.544Z,99846.25
2022-11-24T09:34:42.216Z,99850.75
2022-11-24T09:39:43.944Z,99842.66
2022-11-24T09:45:10.603Z,99842.63
2022-11-24T09:50:18.607Z,99852.56
2022-11-24T09:55:35.621Z,99863.00
2022-11-24T10:00:37.491Z,99861.06
2022-11-24T10:05:39.287Z,99868.34
2022-11-24T10:10:52.364Z,99863.50
2022-11-24T10:15:57.063Z,99862.75
2022-11-24T10:21:10.762Z,99868.84
2022-11-24T10:26:30.239Z,99869.81
2022-11-24T10:31:43.371Z,99864.22
2022-11-24T10:36:55.191Z,99862.28
2022-11-24T10:42:19.654Z,99857.69
2022-11-24T10:47:22.823Z,99857.69
2022-11-24T10:52:25.388Z,99858.53
2022-11-24T10:57:31.689Z,99856.13
2022-11-24T11:02:40.255Z,99852.84
2022-11-24T11:07:41.998Z,99860.00
2022-11-24T11:12:45.008Z,99848.97
2022-11-24T11:17:46.999Z,99851.59
2022-11-24T11:22:50.379Z,99858.31
2022-11-24T11:28:22.375Z,99853.63
2022-11-24T11:38:49.557Z,99847.50
2022-11-24T11:44:00.618Z,99849.97
2022-11-24T11:49:02.831Z,99859.38
2022-11-24T11:54:13.455Z,99866.19
2022-11-24T11:59:34.868Z,99875.28
2022-11-24T12:04:48.655Z,99879.41
2022-11-24T12:10:18.153Z,99879.06
2022-11-24T12:15:44.459Z,99868.22
2022-11-24T12:20:58.527Z,99874.50
2022-11-24T12:26:17.234Z,99873.41
2022-11-24T12:31:52.814Z,99874.44
2022-11-24T12:37:17.677Z,99880.53
2022-11-24T12:42:30.304Z,99887.31
2022-11-24T12:47:58.911Z,99884.84
2022-11-24T12:53:05.170Z,99892.09
2022-11-24T12:58:34.926Z,99888.53
2022-11-24T13:04:00.756Z,99894.34
2022-11-24T13:09:10.493Z,99894.84
2022-11-24T13:14:16.820Z,99905.47
2022-11-24T13:19:29.602Z,99898.03
2022-11-24T13:24:34.540Z,99898.22
2022-11-24T13:29:37.683Z,99900.31
2022-11-24T13:34:39.450Z,99909.91
2022-11-24T13:39:51.234Z,99913.28
2022-11-24T13:44:55.659Z,99922.72
2022-11-24T13:49:57.748Z,99929.97
2022-11-24T13:54:59.491Z,99930.03
2022-11-24T14:00:04.739Z,99930.94
2022-11-24T14:05:06.341Z,99926.84
2022-11-24T14:10:15.740Z,99934.16
2022-11-24T14:15:25.851Z,99933.88
2022-11-24T14:20:28.425Z,99956.22
2022-11-24T14:25:31.603Z,99952.31
2022-11-24T14:30:33.310Z,99963.22
2022-11-24T14:35:35.757Z,99959.41
2022-11-24T14:40:48.438Z,99961.13
2022-11-24T14:45:52.012Z,99972.81
2022-11-24T14:50:55.738Z,99979.41
2022-11-24T14:56:08.638Z,99987.22
2022-11-24T15:01:20.832Z,99997.47
2022-11-24T15:06:22.553Z,100001.38
2022-11-24T15:11:24.186Z,100009.53
2022-11-24T15:16:27.813Z,100008.81
2022-11-24T15:21:33.782Z,100014.31
2022-11-24T15:26:41.459Z,100023.31
2022-11-24T15:31:47.937Z,100026.84
2022-11-24T15:36:54.018Z,100033.63
2022-11-24T15:41:55.715Z,100030.69
2022-11-24T15:46:57.587Z,100042.00
2022-11-24T15:52:00.025Z,100046.50
2022-11-24T15:57:01.768Z,100050.66
2022-11-24T16:02:03.508Z,100047.66
2022-11-24T16:07:06.788Z,100058.22
2022-11-24T16:12:08.537Z,100060.81
2022-11-24T16:17:10.213Z,100059.00
2022-11-24T16:22:11.937Z,100068.38
2022-11-24T16:27:13.574Z,100075.69
2022-11-24T16:32:15.268Z,100072.03
2022-11-24T16:37:16.925Z,100078.09
2022-11-24T16:42:18.614Z,100082.22
2022-11-24T16:47:20.453Z,100087.81
2022-11-24T16:52:22.232Z,100093.03
2022-11-24T16:57:23.871Z,100085.50
2022-11-24T17:02:25.897Z,100096.97
2022-11-24T17:07:27.843Z,100092.94
2022-11-24T17:12:29.523Z,100103.03
2022-11-24T17:17:31.277Z,100103.50
2022-11-24T17:22:32.928Z,100111.41
2022-11-24T17:27:34.615Z,100111.53
2022-11-24T17:32:36.268Z,100119.56
2022-11-24T17:37:38.128Z,100117.84
2022-11-24T17:42:39.799Z,100118.09
2022-11-24T17:47:41.480Z,100137.06
2022-11-24T17:52:43.246Z,100134.50
2022-11-24T17:57:44.932Z,100138.78
2022-11-24T18:02:46.629Z,100140.47
2022-11-24T18:07:48.340Z,100136.72
2022-11-24T18:12:50.100Z,100146.31
2022-11-24T18:17:52.536Z,100148.94
2022-11-24T18:23:09.315Z,100151.09
2022-11-24T18:28:11.009Z,100163.25
2022-11-24T18:33:12.730Z,100157.16
2022-11-24T18:38:14.449Z,100153.53
2022-11-24T18:43:16.101Z,100163.50
2022-11-24T18:48:17.752Z,100169.81
2022-11-24T18:53:20.662Z,100165.59
2022-11-24T18:58:24.885Z,100171.41
2022-11-24T19:03:26.483Z,100171.19
2022-11-24T19:08:28.119Z,100168.78
2022-11-24T19:13:29.788Z,100159.41
2022-11-24T19:18:31.416Z,100170.44
2022-11-24T19:23:33.037Z,100169.34
2022-11-24T19:28:34.803Z,100176.16
2022-11-24T19:33:36.533Z,100183.97
2022-11-24T19:38:38.423Z,100186.28
2022-11-24T19:43:40.998Z,100186.91
2022-11-24T19:48:44.680Z,100188.72
2022-11-24T19:53:46.906Z,100185.44
2022-11-24T19:58:48.983Z,100196.63
2022-11-24T20:04:00.664Z,100204.19
2022-11-24T20:09:03.462Z,100206.63
2022-11-24T20:14:06.744Z,100207.34
2022-11-24T20:19:11.716Z,100213.78
2022-11-24T20:24:16.155Z,100223.03
2022-11-24T20:29:18.384Z,100226.91
2022-11-24T20:34:20.605Z,100229.59
2022-11-24T20:39:27.818Z,100233.34
2022-11-24T20:44:30.266Z,100242.72
2022-11-24T20:49:31.946Z,100239.19
2022-11-24T20:54:33.858Z,100242.00
2022-11-24T20:59:35.667Z,100239.44
2022-11-24T21:04:37.514Z,100249.28
2022-11-24T21:09:39.617Z,100251.34
2022-11-24T21:14:41.647Z,100256.94
2022-11-24T21:19:43.297Z,100264.47
2022-11-24T21:24:44.974Z,100264.00
2022-11-24T21:29:46.588Z,100264.50
2022-11-24T21:34:48.197Z,100265.22
2022-11-24T21:39:49.862Z,100266.81
2022-11-24T21:44:51.503Z,100271.31
2022-11-24T21:49:53.263Z,100265.84
2022-11-24T21:54:54.946Z,100281.78
2022-11-24T21:59:56.820Z,100285.91
2022-11-24T22:04:58.441Z,100286.63
2022-11-24T22:10:00.066Z,100280.06
2022-11-24T22:15:01.748Z,100281.56
2022-11-24T22:20:03.736Z,100284.84
2022-11-24T22:25:05.938Z,100289.97
2022-11-24T22:30:08.332Z,100293.63
2022-11-24T22:35:09.981Z,100287.28
2022-11-24T22:40:11.780Z,100296.06
2022-11-24T22:45:13.429Z,100295.94
2022-11-24T22:50:15.085Z,100299.56
2022-11-24T22:55:16.774Z,100306.03
2022-11-24T23:00:18.689Z,100303.59
2022-11-24T23:05:20.985Z,100312.72
2022-11-24T23:10:23.269Z,100314.59
2022-11-24T23:15:24.984Z,100317.63
2022-11-24T23:20:26.601Z,100324.44
2022-11-24T23:25:28.216Z,100322.84
2022-11-24T23:30:30.019Z,100320.19
2022-11-24T23:35:33.079Z,100323.69
2022-11-24T23:40:34.733Z,100327.69
2022-11-24T23:45:36.462Z,100320.03
2022-11-24T23:50:38.218Z,100326.22
2022-11-24T23:55:39.947Z,100321.63
